map of YUL home
Great Circle Mapper logo
YUL - Airport
Location
City:  Montréal, Québec, Canada
Name:Pierre Elliott Trudeau International Airport
Old (Alt.):Dorval
ICAO / IATA:CYUL / YUL

Details
Type:Airport (Airfield)
Use:Public/Civil, International (customs port of entry)
Latitude:45°28'14"N (45.470556)
Longitude:73°44'27"W (-73.740832)
Datum:WGS 1984
Elevation:118 ft (36 m)
Runways:3
Longest:11000 × 200 ft (3353 × 61 m), paved

Time
Time Zone:UTC-5 (DST-4)
Local Time:

Weather
METAR:CYUL 161200Z 30011G18KT 15SM SCT025 M06/M15 A3029 RMK CU3 PRESRR SLP260
TAF:CYUL 161138Z 1612/1712 29010G20KT P6SM FEW030
FM162100 27010KT P6SM SKC
BECMG 1622/1624 25005KT
BECMG 1704/1706 18005KT
RMK NXT FCST BY 161500Z

Related Locations
Nearby:
Farthest:MGV: 11509 mi / 18522 km
Margaret River, WA, AU

Find:

   beyond  
but within

Other Information
Maps:
NOTAMs:
Links:
Sources:

  
flag of Canada
flag of Québec
flag of Montréal
  

Airport Diagram

Airport diagram for YUL

Airport diagram PDF

Sectional Chart

Flight Planning
at skyvector.com

Satellite Image

Google Maps Satellite View

 

Copyright © 2004-2014 Karl L. Swartz. All rights reserved.
The Great Circle Mapper name and logo are trademarks of the Great Circle Mapper.
All other trademarks mentioned herein belong to their respective owners.
Please see credits for attibutions and further copyright information.

  Follow gcmap on Facebook Follow gcmap on Twitter

hCard Microformat

Geo Microformat